createdAt,value
2018-09-18T00:00:30.916Z,23.63
2018-09-18T00:01:30.903Z,23.72
2018-09-18T00:02:30.888Z,23.52
2018-09-18T00:03:30.878Z,23.63
2018-09-18T00:04:30.885Z,23.59
2018-09-18T00:05:30.855Z,23.55
2018-09-18T00:06:30.843Z,23.60
2018-09-18T00:07:30.835Z,23.55
2018-09-18T00:08:30.821Z,23.59
2018-09-18T00:09:30.845Z,23.60
2018-09-18T00:10:30.807Z,23.50
2018-09-18T00:11:30.800Z,23.64
2018-09-18T00:12:30.784Z,23.57
2018-09-18T00:13:30.766Z,23.60
2018-09-18T00:14:30.766Z,23.64
2018-09-18T00:15:30.746Z,23.53
2018-09-18T00:16:30.733Z,23.56
2018-09-18T00:17:30.728Z,23.55
2018-09-18T00:18:30.711Z,23.62
2018-09-18T00:19:30.731Z,23.56
2018-09-18T00:20:30.690Z,23.55
2018-09-18T00:21:30.678Z,23.53
2018-09-18T00:22:30.667Z,23.53
2018-09-18T00:23:30.676Z,23.67
2018-09-18T00:24:30.658Z,23.55
2018-09-18T00:25:30.633Z,23.60
2018-09-18T00:26:30.621Z,23.55
2018-09-18T00:27:30.614Z,23.52
2018-09-18T00:28:30.601Z,23.55
2018-09-18T00:29:30.607Z,23.56
2018-09-18T00:30:30.582Z,23.59
2018-09-18T00:31:30.590Z,23.55
2018-09-18T00:32:30.579Z,23.53
2018-09-18T00:33:30.546Z,23.56
2018-09-18T00:34:30.551Z,23.55
2018-09-18T00:35:30.527Z,23.57
2018-09-18T00:36:30.512Z,23.56
2018-09-18T00:37:30.528Z,23.56
2018-09-18T00:38:30.492Z,23.50
2018-09-18T00:39:30.496Z,23.55
2018-09-18T00:40:30.512Z,23.55
2018-09-18T00:41:30.487Z,23.57
2018-09-18T00:42:30.478Z,23.59
2018-09-18T00:43:30.436Z,23.56
2018-09-18T00:44:30.449Z,23.55
2018-09-18T00:45:30.417Z,23.52
2018-09-18T00:46:30.404Z,23.55
2018-09-18T00:47:30.392Z,23.55
2018-09-18T00:48:30.384Z,23.62
2018-09-18T00:49:30.380Z,23.60
2018-09-18T00:50:30.363Z,23.55
2018-09-18T00:51:30.352Z,23.59
2018-09-18T00:52:30.362Z,23.53
2018-09-18T00:53:30.327Z,23.53
2018-09-18T00:54:30.330Z,23.53
2018-09-18T00:55:30.318Z,23.48
2018-09-18T00:56:30.325Z,23.59
2018-09-18T00:57:30.309Z,23.55
2018-09-18T00:58:30.269Z,23.45
2018-09-18T00:59:30.262Z,23.53
2018-09-18T01:00:30.268Z,23.53
2018-09-18T01:01:30.243Z,23.50
2018-09-18T01:02:30.256Z,23.55
2018-09-18T01:03:30.218Z,23.53
2018-09-18T01:04:30.204Z,23.55
2018-09-18T01:05:30.218Z,23.56
2018-09-18T01:06:30.182Z,23.53
2018-09-18T01:07:30.171Z,23.55
2018-09-18T01:08:30.183Z,23.57
2018-09-18T01:09:30.155Z,23.48
2018-09-18T01:10:30.158Z,23.53
2018-09-18T01:11:30.134Z,23.60
2018-09-18T01:12:30.115Z,23.52
2018-09-18T01:13:30.110Z,23.52
2018-09-18T01:14:30.105Z,23.55
2018-09-18T01:15:30.100Z,23.47
2018-09-18T01:16:30.070Z,23.57
2018-09-18T01:17:30.072Z,23.47
2018-09-18T01:18:30.063Z,23.48
2018-09-18T01:19:30.036Z,23.57
2018-09-18T01:20:30.040Z,23.53
2018-09-18T01:21:30.014Z,23.48
2018-09-18T01:22:30.012Z,23.56
2018-09-18T01:23:29.998Z,23.53
2018-09-18T01:24:29.980Z,23.50
2018-09-18T01:25:29.984Z,23.48
2018-09-18T01:26:29.958Z,23.47
2018-09-18T01:27:29.948Z,23.45
2018-09-18T01:28:29.950Z,23.45
2018-09-18T01:29:29.928Z,23.45
2018-09-18T01:30:29.957Z,23.48
2018-09-18T01:31:29.919Z,23.50
2018-09-18T01:32:29.893Z,23.50
2018-09-18T01:33:29.885Z,23.48
2018-09-18T01:34:29.874Z,23.48
2018-09-18T01:35:29.875Z,23.48
2018-09-18T01:36:29.848Z,23.48
2018-09-18T01:37:29.844Z,23.50
2018-09-18T01:38:29.829Z,23.52
2018-09-18T01:39:29.817Z,23.47
2018-09-18T01:40:29.819Z,23.52
2018-09-18T01:41:29.804Z,23.45
2018-09-18T01:42:29.797Z,23.52
2018-09-18T01:43:29.781Z,23.47
2018-09-18T01:44:29.760Z,23.50
2018-09-18T01:45:29.761Z,23.47
2018-09-18T01:46:29.744Z,23.45
2018-09-18T01:47:29.728Z,23.53
2018-09-18T01:48:29.715Z,23.42
2018-09-18T01:49:29.705Z,23.47
2018-09-18T01:50:29.712Z,23.47
2018-09-18T01:51:29.700Z,23.47
2018-09-18T01:52:29.671Z,23.47
2018-09-18T01:53:29.660Z,23.40
2018-09-18T01:54:29.650Z,23.52
2018-09-18T01:55:29.650Z,23.44
2018-09-18T01:56:29.626Z,23.45
2018-09-18T01:57:29.655Z,23.41
2018-09-18T01:58:29.627Z,23.44
2018-09-18T01:59:29.601Z,23.44
2018-09-18T02:00:29.600Z,23.42
2018-09-18T02:01:29.571Z,23.44
2018-09-18T02:02:29.569Z,23.48
2018-09-18T02:03:29.550Z,23.41
2018-09-18T02:04:29.581Z,23.45
2018-09-18T02:05:29.547Z,23.40
2018-09-18T02:06:29.517Z,23.42
2018-09-18T02:07:29.515Z,23.44
2018-09-18T02:08:29.495Z,23.44
2018-09-18T02:09:29.535Z,23.41
2018-09-18T02:10:29.497Z,23.44
2018-09-18T02:11:29.463Z,23.40
2018-09-18T02:12:29.455Z,23.45
2018-09-18T02:13:29.440Z,23.42
2018-09-18T02:14:29.431Z,23.52
2018-09-18T02:15:29.446Z,23.40
2018-09-18T02:16:29.412Z,23.38
2018-09-18T02:17:29.395Z,23.42
2018-09-18T02:18:29.385Z,23.44
2018-09-18T02:19:29.373Z,23.38
2018-09-18T02:20:29.432Z,23.41
2018-09-18T02:21:29.353Z,23.41
2018-09-18T02:22:29.340Z,23.35
2018-09-18T02:23:29.336Z,23.40
2018-09-18T02:24:29.326Z,23.38
2018-09-18T02:25:29.341Z,23.41
2018-09-18T02:26:29.300Z,23.45
2018-09-18T02:27:29.299Z,23.40
2018-09-18T02:28:29.279Z,23.40
2018-09-18T02:29:29.277Z,23.41
2018-09-18T02:30:29.340Z,23.45
2018-09-18T02:31:29.255Z,23.38
2018-09-18T02:32:29.230Z,23.38
2018-09-18T02:33:29.218Z,23.45
2018-09-18T02:34:29.207Z,23.37
2018-09-18T02:35:29.201Z,23.42
2018-09-18T02:36:29.221Z,23.41
2018-09-18T02:37:29.190Z,23.38
2018-09-18T02:38:29.163Z,23.34
2018-09-18T02:39:29.151Z,23.45
2018-09-18T02:40:29.141Z,23.38
2018-09-18T02:41:29.141Z,23.42
2018-09-18T02:42:29.131Z,23.42
2018-09-18T02:43:29.118Z,23.32
2018-09-18T02:44:29.104Z,23.44
2018-09-18T02:45:29.099Z,23.40
2018-09-18T02:46:29.090Z,23.40
2018-09-18T02:47:29.063Z,23.40
2018-09-18T02:48:29.054Z,23.44
2018-09-18T02:49:29.048Z,23.42
2018-09-18T02:50:29.043Z,23.29
2018-09-18T02:51:29.044Z,23.35
2018-09-18T02:52:29.008Z,23.45
2018-09-18T02:53:28.997Z,23.40
2018-09-18T02:54:28.987Z,23.37
2018-09-18T02:55:28.974Z,23.29
2018-09-18T02:56:28.977Z,23.34
2018-09-18T02:57:28.963Z,23.35
2018-09-18T02:58:28.941Z,23.44
2018-09-18T02:59:28.933Z,23.34
2018-09-18T03:00:28.935Z,23.32
2018-09-18T03:01:28.921Z,23.44
2018-09-18T03:02:28.898Z,23.44
2018-09-18T03:03:28.894Z,23.40
2018-09-18T03:04:28.878Z,23.38
2018-09-18T03:05:28.865Z,23.38
2018-09-18T03:06:28.868Z,23.41
2018-09-18T03:07:28.842Z,23.40
2018-09-18T03:08:28.831Z,23.32
2018-09-18T03:09:28.826Z,23.38
2018-09-18T03:10:28.810Z,23.44
2018-09-18T03:11:29.004Z,23.34
2018-09-18T03:12:28.788Z,23.38
2018-09-18T03:13:28.789Z,23.38
2018-09-18T03:14:28.766Z,23.40
2018-09-18T03:15:28.759Z,23.38
2018-09-18T03:16:28.754Z,23.29
2018-09-18T03:17:28.734Z,23.42
2018-09-18T03:18:28.723Z,23.38
2018-09-18T03:19:28.710Z,23.32
2018-09-18T03:20:28.703Z,23.32
2018-09-18T03:21:28.705Z,23.35
2018-09-18T03:22:28.678Z,23.37
2018-09-18T03:23:28.692Z,23.37
2018-09-18T03:24:28.656Z,23.41
2018-09-18T03:25:28.685Z,23.40
2018-09-18T03:26:28.647Z,23.35
2018-09-18T03:27:28.725Z,23.34
2018-09-18T03:28:28.615Z,23.40
2018-09-18T03:29:28.600Z,23.34
2018-09-18T03:30:28.593Z,23.40
2018-09-18T03:31:28.590Z,23.41
2018-09-18T03:32:28.599Z,23.41
2018-09-18T03:33:28.559Z,23.37
2018-09-18T03:34:28.550Z,23.35
2018-09-18T03:35:28.624Z,23.38
2018-09-18T03:36:28.556Z,23.32
2018-09-18T03:37:28.541Z,23.38
2018-09-18T03:38:28.510Z,23.41
2018-09-18T03:39:28.494Z,23.42
2018-09-18T03:40:28.490Z,23.34
2018-09-18T03:41:28.512Z,23.42
2018-09-18T03:42:28.457Z,23.37
2018-09-18T03:43:28.450Z,23.40
2018-09-18T03:44:28.436Z,23.35
2018-09-18T03:45:28.452Z,23.38
2018-09-18T03:46:28.412Z,23.37
2018-09-18T03:47:28.420Z,23.37
2018-09-18T03:48:28.405Z,23.35
2018-09-18T03:49:28.381Z,23.35
2018-09-18T03:50:28.375Z,23.37
2018-09-18T03:51:28.360Z,23.37
2018-09-18T03:52:28.360Z,23.42
2018-09-18T03:53:28.363Z,23.41
2018-09-18T03:54:28.325Z,23.32
2018-09-18T03:55:28.334Z,23.37
2018-09-18T03:56:28.304Z,23.35
2018-09-18T03:57:28.307Z,23.34
2018-09-18T03:58:28.301Z,23.41
2018-09-18T03:59:28.290Z,23.41
2018-09-18T04:00:28.350Z,23.44
2018-09-18T04:01:28.278Z,23.38
2018-09-18T04:02:28.250Z,23.32
2018-09-18T04:03:28.228Z,23.38
2018-09-18T04:04:28.238Z,23.38
2018-09-18T04:05:28.205Z,23.34
2018-09-18T04:06:28.193Z,23.38
2018-09-18T04:07:28.215Z,23.32
2018-09-18T04:08:28.176Z,23.32
2018-09-18T04:09:28.164Z,23.32
2018-09-18T04:10:28.159Z,23.35
2018-09-18T04:11:28.187Z,23.37
2018-09-18T04:12:28.145Z,23.41
2018-09-18T04:13:28.114Z,23.29
2018-09-18T04:14:28.106Z,23.37
2018-09-18T04:15:28.111Z,23.38
2018-09-18T04:16:28.117Z,23.35
2018-09-18T04:17:28.145Z,23.38
2018-09-18T04:18:28.063Z,23.42
2018-09-18T04:19:28.054Z,23.41
2018-09-18T04:20:28.041Z,23.37
2018-09-18T04:21:28.042Z,23.37
2018-09-18T04:22:28.047Z,23.38
2018-09-18T04:23:28.008Z,23.35
2018-09-18T04:24:28.027Z,23.44
2018-09-18T04:25:27.992Z,23.41
2018-09-18T04:26:27.973Z,23.41
2018-09-18T04:27:27.985Z,23.29
2018-09-18T04:28:27.951Z,23.41
2018-09-18T04:29:27.943Z,23.38
2018-09-18T04:30:27.930Z,23.38
2018-09-18T04:31:27.917Z,23.35
2018-09-18T04:32:27.940Z,23.38
2018-09-18T04:33:27.896Z,23.41
2018-09-18T04:34:27.884Z,23.34
2018-09-18T04:35:27.873Z,23.42
2018-09-18T04:36:27.864Z,23.44
2018-09-18T04:37:27.885Z,23.40
2018-09-18T04:38:27.843Z,23.29
2018-09-18T04:39:27.828Z,23.38
2018-09-18T04:40:27.818Z,23.38
2018-09-18T04:41:27.817Z,23.41
2018-09-18T04:42:27.853Z,23.38
2018-09-18T04:43:27.796Z,23.38
2018-09-18T04:44:27.776Z,23.41
2018-09-18T04:45:27.774Z,23.34
2018-09-18T04:46:27.759Z,23.35
2018-09-18T04:47:27.754Z,23.40
2018-09-18T04:48:27.738Z,23.34
2018-09-18T04:49:27.730Z,23.35
2018-09-18T04:50:27.711Z,23.35
2018-09-18T04:51:27.742Z,23.34
2018-09-18T04:52:27.698Z,23.32
2018-09-18T04:53:27.678Z,23.25
2018-09-18T04:54:27.672Z,23.25
2018-09-18T04:55:27.678Z,23.25
2018-09-18T04:56:27.643Z,23.25
2018-09-18T04:57:27.659Z,23.25
2018-09-18T04:58:27.621Z,23.28
2018-09-18T04:59:27.613Z,23.28
2018-09-18T05:00:27.604Z,23.28
2018-09-18T05:01:27.608Z,23.32
2018-09-18T05:02:27.580Z,23.29
2018-09-18T05:03:27.589Z,23.28
2018-09-18T05:04:27.554Z,23.25
2018-09-18T05:05:27.550Z,23.22
2018-09-18T05:06:27.584Z,23.32
2018-09-18T05:07:27.523Z,23.29
2018-09-18T05:08:27.538Z,23.29
2018-09-18T05:09:27.611Z,23.24
2018-09-18T05:10:27.493Z,23.29
2018-09-18T05:11:27.478Z,23.34
2018-09-18T05:12:27.480Z,23.25
2018-09-18T05:13:27.472Z,23.34
2018-09-18T05:14:27.445Z,23.29
2018-09-18T05:15:27.435Z,23.29
2018-09-18T05:16:27.423Z,23.28
2018-09-18T05:17:27.435Z,23.29
2018-09-18T05:18:27.437Z,23.29
2018-09-18T05:19:27.389Z,23.28
2018-09-18T05:20:27.396Z,23.25
2018-09-18T05:21:27.371Z,23.24
2018-09-18T05:22:27.361Z,23.25
2018-09-18T05:23:27.356Z,23.28
2018-09-18T05:24:27.363Z,23.34
2018-09-18T05:25:27.374Z,23.34
2018-09-18T05:26:27.311Z,23.29
2018-09-18T05:27:27.313Z,23.24
2018-09-18T05:28:27.333Z,23.18
2018-09-18T05:29:34.356Z,23.25
2018-09-18T05:30:27.274Z,23.25
2018-09-18T05:31:27.273Z,23.28
2018-09-18T05:32:34.261Z,23.26
2018-09-18T05:33:27.249Z,23.28
2018-09-18T05:34:27.225Z,23.29
2018-09-18T05:35:27.212Z,23.22
2018-09-18T05:36:27.206Z,23.15
2018-09-18T05:37:27.191Z,23.32
2018-09-18T05:38:27.193Z,23.19
2018-09-18T05:39:27.170Z,23.26
2018-09-18T05:40:27.166Z,23.15
2018-09-18T05:41:27.147Z,23.18
2018-09-18T05:42:27.135Z,23.29
2018-09-18T05:43:27.164Z,23.29
2018-09-18T05:44:27.123Z,23.22
2018-09-18T05:45:27.107Z,23.29
2018-09-18T05:46:27.112Z,23.16
2018-09-18T05:47:27.082Z,23.25
2018-09-18T05:48:27.090Z,23.18
2018-09-18T05:49:27.061Z,23.28
2018-09-18T05:50:27.055Z,23.25
2018-09-18T05:51:27.062Z,23.29
2018-09-18T05:52:27.026Z,23.29
2018-09-18T05:53:27.055Z,23.18
2018-09-18T05:54:27.008Z,23.26
2018-09-18T05:55:26.991Z,23.28
2018-09-18T05:56:26.981Z,23.16
2018-09-18T05:57:26.976Z,23.26
2018-09-18T05:58:26.972Z,23.32
2018-09-18T05:59:26.961Z,23.35
2018-09-18T06:00:26.939Z,23.29
2018-09-18T06:01:26.930Z,23.26
2018-09-18T06:02:26.916Z,23.26
2018-09-18T06:03:26.921Z,23.16
2018-09-18T06:04:26.909Z,23.26
2018-09-18T06:05:26.882Z,23.25
2018-09-18T06:06:26.887Z,23.25
2018-09-18T06:07:26.860Z,23.28
2018-09-18T06:08:26.863Z,23.26
2018-09-18T06:09:26.836Z,23.25
2018-09-18T06:10:26.835Z,23.22
2018-09-18T06:11:26.817Z,23.25
2018-09-18T06:12:26.828Z,23.25
2018-09-18T06:13:26.827Z,23.25
2018-09-18T06:14:26.812Z,23.19
2018-09-18T06:15:26.770Z,23.29
2018-09-18T06:16:26.760Z,23.32
2018-09-18T06:17:26.750Z,23.32
2018-09-18T06:18:26.767Z,23.32
2018-09-18T06:19:26.729Z,23.25
2018-09-18T06:20:26.740Z,23.24
2018-09-18T06:21:26.706Z,23.34
2018-09-18T06:22:26.695Z,23.34
2018-09-18T06:23:26.684Z,23.37
2018-09-18T06:24:26.685Z,23.38
2018-09-18T06:25:26.663Z,23.41
2018-09-18T06:26:26.650Z,23.32
2018-09-18T06:27:26.677Z,23.34
2018-09-18T06:28:26.629Z,23.37
2018-09-18T06:29:26.631Z,23.38
2018-09-18T06:30:26.605Z,23.38
2018-09-18T06:31:26.595Z,23.37
2018-09-18T06:32:26.587Z,23.40
2018-09-18T06:33:26.583Z,23.35
2018-09-18T06:34:26.574Z,23.28
2018-09-18T06:35:26.555Z,23.37
2018-09-18T06:36:26.546Z,23.38
2018-09-18T06:37:26.547Z,23.48
2018-09-18T06:38:26.519Z,23.48
2018-09-18T06:39:26.566Z,23.38
2018-09-18T06:40:26.500Z,23.35
2018-09-18T06:41:26.484Z,23.34
2018-09-18T06:42:26.587Z,23.40
2018-09-18T06:43:26.462Z,23.40
2018-09-18T06:44:26.463Z,23.44
2018-09-18T06:45:26.459Z,23.41
2018-09-18T06:46:26.430Z,23.41
2018-09-18T06:47:26.417Z,23.38
2018-09-18T06:48:26.407Z,23.41
2018-09-18T06:49:26.407Z,23.47
2018-09-18T06:50:26.390Z,23.45
2018-09-18T06:51:26.390Z,23.50
2018-09-18T06:52:26.366Z,23.50
2018-09-18T06:53:26.356Z,23.48
2018-09-18T06:54:26.369Z,23.52
2018-09-18T06:55:26.334Z,23.47
2018-09-18T06:56:26.345Z,23.56
2018-09-18T06:57:26.327Z,23.53
2018-09-18T06:58:26.303Z,23.52
2018-09-18T06:59:26.309Z,23.53
2018-09-18T07:00:26.321Z,23.55
2018-09-18T07:01:26.290Z,23.50
2018-09-18T07:02:26.250Z,23.55
2018-09-18T07:03:26.251Z,23.53
2018-09-18T07:04:26.244Z,23.56
2018-09-18T07:05:26.269Z,23.55
2018-09-18T07:06:26.249Z,23.53
2018-09-18T07:07:26.202Z,23.57
2018-09-18T07:08:26.184Z,23.62
2018-09-18T07:09:26.187Z,23.57
2018-09-18T07:10:26.168Z,23.62
2018-09-18T07:11:26.157Z,23.57
2018-09-18T07:12:26.157Z,23.52
2018-09-18T07:13:26.137Z,23.63
2018-09-18T07:14:26.135Z,23.70
2018-09-18T07:15:26.108Z,23.70
2018-09-18T07:16:26.102Z,23.66
2018-09-18T07:17:26.087Z,23.72
2018-09-18T07:18:26.074Z,23.72
2018-09-18T07:19:26.078Z,23.62
2018-09-18T07:20:26.052Z,23.72
2018-09-18T07:21:26.045Z,23.64
2018-09-18T07:22:26.046Z,23.75
2018-09-18T07:23:26.040Z,23.72
2018-09-18T07:24:26.021Z,23.79
2018-09-18T07:25:25.997Z,23.81
2018-09-18T07:26:25.988Z,23.72
2018-09-18T07:27:25.984Z,23.74
2018-09-18T07:28:25.966Z,23.84
2018-09-18T07:29:25.991Z,23.78
2018-09-18T07:30:25.953Z,23.81
2018-09-18T07:31:25.932Z,23.84
2018-09-18T07:32:25.929Z,23.75
2018-09-18T07:33:25.915Z,23.78
2018-09-18T07:34:25.913Z,23.78
2018-09-18T07:35:25.884Z,23.82
2018-09-18T07:36:25.919Z,23.87
2018-09-18T07:37:25.865Z,23.81
2018-09-18T07:38:25.855Z,23.84
2018-09-18T07:39:25.872Z,23.90
2018-09-18T07:40:25.830Z,23.85
2018-09-18T07:41:25.823Z,23.84
2018-09-18T07:42:25.812Z,23.87
2018-09-18T07:43:25.798Z,23.92
2018-09-18T07:44:25.797Z,23.84
2018-09-18T07:45:25.814Z,23.96
2018-09-18T07:46:25.782Z,23.89
2018-09-18T07:47:25.754Z,24.00
2018-09-18T07:48:25.744Z,23.92
2018-09-18T07:49:25.733Z,24.03
2018-09-18T07:50:25.741Z,23.96
2018-09-18T07:51:25.748Z,24.02
2018-09-18T07:52:25.715Z,24.04
2018-09-18T07:53:25.688Z,24.02
2018-09-18T07:54:25.719Z,24.03
2018-09-18T07:55:25.680Z,24.03
2018-09-18T07:56:25.655Z,24.08
2018-09-18T07:57:25.680Z,24.12
2018-09-18T07:58:25.632Z,24.12
2018-09-18T07:59:25.626Z,24.07
2018-09-18T08:00:25.623Z,24.11
2018-09-18T08:01:25.607Z,24.14
2018-09-18T08:02:25.587Z,24.17
2018-09-18T08:03:25.580Z,24.08
2018-09-18T08:04:25.579Z,24.19
2018-09-18T08:05:25.566Z,24.17
2018-09-18T08:06:25.547Z,24.21
2018-09-18T08:07:25.541Z,24.24
2018-09-18T08:08:25.524Z,24.12
2018-09-18T08:09:25.534Z,24.26
2018-09-18T08:10:25.515Z,24.24
2018-09-18T08:11:25.510Z,24.26
2018-09-18T08:12:25.481Z,24.27
2018-09-18T08:13:25.466Z,24.22
2018-09-18T08:14:25.459Z,24.29
2018-09-18T08:15:25.459Z,24.24
2018-09-18T08:16:25.433Z,24.26
2018-09-18T08:17:25.441Z,24.34
2018-09-18T08:18:25.419Z,24.27
2018-09-18T08:19:25.471Z,24.39
2018-09-18T08:20:25.401Z,24.44
2018-09-18T08:21:25.385Z,24.36
2018-09-18T08:22:25.373Z,24.37
2018-09-18T08:23:25.380Z,24.32
2018-09-18T08:24:25.415Z,24.37
2018-09-18T08:25:25.367Z,24.34
2018-09-18T08:26:25.324Z,24.45
2018-09-18T08:27:25.316Z,24.44
2018-09-18T08:28:25.307Z,24.37
2018-09-18T08:29:25.293Z,24.42
2018-09-18T08:30:25.323Z,24.48
2018-09-18T08:31:25.275Z,24.40
2018-09-18T08:32:25.275Z,24.44
2018-09-18T08:33:25.248Z,24.48
2018-09-18T08:34:25.239Z,24.42
2018-09-18T08:35:25.239Z,24.46
2018-09-18T08:36:25.219Z,24.44
2018-09-18T08:37:25.206Z,24.40
2018-09-18T08:38:25.217Z,24.40
2018-09-18T08:39:25.183Z,24.49
2018-09-18T08:40:25.201Z,24.46
2018-09-18T08:41:25.170Z,24.48
2018-09-18T08:42:25.152Z,24.51
2018-09-18T08:43:25.161Z,24.48
2018-09-18T08:44:25.134Z,24.42
2018-09-18T08:45:25.137Z,24.40
2018-09-18T08:46:25.122Z,24.49
2018-09-18T08:47:25.207Z,24.45
2018-09-18T08:48:25.092Z,24.39
2018-09-18T08:49:25.079Z,24.48
2018-09-18T08:50:25.101Z,24.46
2018-09-18T08:51:25.089Z,24.46
2018-09-18T08:52:25.071Z,24.48
2018-09-18T08:53:25.033Z,24.40
2018-09-18T08:54:25.084Z,24.42
2018-09-18T08:55:25.098Z,24.40
2018-09-18T08:56:25.025Z,24.48
2018-09-18T08:57:25.011Z,24.49
2018-09-18T08:58:25.024Z,24.42
2018-09-18T08:59:24.983Z,24.39
2018-09-18T09:00:24.972Z,24.42
2018-09-18T09:01:24.951Z,24.44
2018-09-18T09:02:24.936Z,24.36
2018-09-18T09:03:24.960Z,24.36
2018-09-18T09:04:24.915Z,24.39
2018-09-18T09:05:24.936Z,24.40
2018-09-18T09:06:24.942Z,24.45
2018-09-18T09:07:24.908Z,24.40
2018-09-18T09:08:24.993Z,24.42
2018-09-18T09:09:24.862Z,24.42
2018-09-18T09:10:24.871Z,24.39
2018-09-18T09:11:24.855Z,24.37
2018-09-18T09:12:24.830Z,24.34
2018-09-18T09:13:33.933Z,24.37
2018-09-18T09:14:24.878Z,24.32
2018-09-18T09:15:33.539Z,24.37
2018-09-18T09:16:24.793Z,24.32
2018-09-18T09:17:24.840Z,24.34
2018-09-18T09:18:24.881Z,24.24
2018-09-18T09:19:24.777Z,24.29
2018-09-18T09:20:24.744Z,24.24
2018-09-18T09:21:24.856Z,24.24
2018-09-18T09:22:24.820Z,24.42
2018-09-18T09:23:24.711Z,24.36
2018-09-18T09:24:24.711Z,24.36
2018-09-18T09:25:24.690Z,24.30
2018-09-18T09:26:24.803Z,24.30
2018-09-18T09:27:24.700Z,24.22
2018-09-18T09:28:24.685Z,24.26
2018-09-18T09:29:24.654Z,24.24
2018-09-18T09:30:24.657Z,24.36
2018-09-18T09:31:24.676Z,24.34
2018-09-18T09:32:24.724Z,24.27
2018-09-18T09:33:24.615Z,24.42
2018-09-18T09:34:24.603Z,24.36
2018-09-18T09:35:24.583Z,24.36
2018-09-18T09:36:24.585Z,24.32
2018-09-18T09:37:24.617Z,24.32
2018-09-18T09:38:24.564Z,24.33
2018-09-18T09:39:24.548Z,24.42
2018-09-18T09:40:24.538Z,24.44
2018-09-18T09:41:24.549Z,24.32
2018-09-18T09:42:24.542Z,24.34
2018-09-18T09:43:24.501Z,24.39
2018-09-18T09:44:24.489Z,24.33
2018-09-18T09:45:24.477Z,24.32
2018-09-18T09:46:24.478Z,24.34
2018-09-18T09:47:24.456Z,24.33
2018-09-18T09:48:24.451Z,24.40
2018-09-18T09:49:24.434Z,24.36
2018-09-18T09:50:24.423Z,24.39
2018-09-18T09:51:24.586Z,24.34
2018-09-18T09:52:24.402Z,24.37
2018-09-18T09:53:24.391Z,24.36
2018-09-18T09:54:24.387Z,24.39
2018-09-18T09:55:24.371Z,24.45
2018-09-18T09:56:24.406Z,24.44
2018-09-18T09:57:24.350Z,24.37
2018-09-18T09:58:24.338Z,24.37
2018-09-18T09:59:24.332Z,24.36
2018-09-18T10:00:24.382Z,24.39
2018-09-18T10:01:24.344Z,24.40
2018-09-18T10:02:24.300Z,24.39
2018-09-18T10:03:24.284Z,24.40
2018-09-18T10:04:24.276Z,24.39
2018-09-18T10:05:24.320Z,24.46
2018-09-18T10:06:24.268Z,24.42
2018-09-18T10:07:24.244Z,24.37
2018-09-18T10:08:24.260Z,24.45
2018-09-18T10:09:24.221Z,24.46
2018-09-18T10:10:24.274Z,24.48
2018-09-18T10:11:24.214Z,24.51
2018-09-18T10:12:24.188Z,24.44
2018-09-18T10:13:24.178Z,24.48
2018-09-18T10:14:24.220Z,24.46
2018-09-18T10:15:24.158Z,24.49
2018-09-18T10:16:24.166Z,24.40
2018-09-18T10:17:24.134Z,24.45
2018-09-18T10:18:24.125Z,24.51
2018-09-18T10:19:24.123Z,24.45
2018-09-18T10:20:24.101Z,24.52
2018-09-18T10:21:24.128Z,24.44
2018-09-18T10:22:24.080Z,24.55
2018-09-18T10:23:24.094Z,24.49
2018-09-18T10:24:24.058Z,24.58
2018-09-18T10:25:24.059Z,24.59
2018-09-18T10:26:24.141Z,24.58
2018-09-18T10:27:24.050Z,24.58
2018-09-18T10:28:24.016Z,24.59
2018-09-18T10:29:24.007Z,24.63
2018-09-18T10:30:24.056Z,24.59
2018-09-18T10:31:23.992Z,24.63
2018-09-18T10:32:23.984Z,24.61
2018-09-18T10:33:23.985Z,24.64
2018-09-18T10:34:23.958Z,24.66
2018-09-18T10:35:23.943Z,24.66
2018-09-18T10:36:23.968Z,24.70
2018-09-18T10:37:23.993Z,24.69
2018-09-18T10:38:23.920Z,24.61
2018-09-18T10:39:23.905Z,24.59
2018-09-18T10:40:23.884Z,24.66
2018-09-18T10:41:24.063Z,24.66
2018-09-18T10:42:23.901Z,24.71
2018-09-18T10:43:23.857Z,24.59
2018-09-18T10:44:23.850Z,24.80
2018-09-18T10:45:23.836Z,24.77
2018-09-18T10:46:23.852Z,24.77
2018-09-18T10:47:23.843Z,24.77
2018-09-18T10:48:23.802Z,24.75
2018-09-18T10:49:23.808Z,24.77
2018-09-18T10:50:23.778Z,24.77
2018-09-18T10:51:23.769Z,24.83
2018-09-18T10:52:23.772Z,24.86
2018-09-18T10:53:23.752Z,24.87
2018-09-18T10:54:23.783Z,24.82
2018-09-18T10:55:23.810Z,24.89
2018-09-18T10:56:23.719Z,24.85
2018-09-18T10:57:23.762Z,24.90
2018-09-18T10:58:23.693Z,24.83
2018-09-18T10:59:23.686Z,24.90
2018-09-18T11:00:23.717Z,24.83
2018-09-18T11:01:23.666Z,24.93
2018-09-18T11:02:23.813Z,24.93
2018-09-18T11:03:23.653Z,24.86
2018-09-18T11:04:23.662Z,24.89
2018-09-18T11:05:23.662Z,24.89
2018-09-18T11:06:23.610Z,24.86
2018-09-18T11:07:23.621Z,24.89
2018-09-18T11:08:23.674Z,25.02
2018-09-18T11:09:23.575Z,25.01
2018-09-18T11:10:23.625Z,24.93
2018-09-18T11:11:23.570Z,25.00
2018-09-18T11:12:23.567Z,24.97
2018-09-18T11:13:23.607Z,24.92
2018-09-18T11:14:23.518Z,25.02
2018-09-18T11:15:23.586Z,24.96
2018-09-18T11:16:23.522Z,24.96
2018-09-18T11:17:23.509Z,25.01
2018-09-18T11:18:23.584Z,24.96
2018-09-18T11:19:23.470Z,25.01
2018-09-18T11:20:23.482Z,25.00
2018-09-18T11:21:23.532Z,25.01
2018-09-18T11:22:23.577Z,25.05
2018-09-18T11:23:23.470Z,25.02
2018-09-18T11:24:23.418Z,25.01
2018-09-18T11:25:23.405Z,25.04
2018-09-18T11:26:23.394Z,25.00
2018-09-18T11:27:23.391Z,24.90
2018-09-18T11:28:23.373Z,25.00
2018-09-18T11:29:23.402Z,24.93
2018-09-18T11:30:23.371Z,25.02
2018-09-18T11:31:23.390Z,25.08
2018-09-18T11:32:23.334Z,25.00
2018-09-18T11:33:23.323Z,25.04
2018-09-18T11:34:23.319Z,25.00
2018-09-18T11:35:23.293Z,25.01
2018-09-18T11:36:23.285Z,25.07
2018-09-18T11:37:23.284Z,25.05
2018-09-18T11:38:23.259Z,25.07
2018-09-18T11:39:23.245Z,25.12
2018-09-18T11:40:23.234Z,24.92
2018-09-18T11:41:23.244Z,25.04
2018-09-18T11:42:23.225Z,25.02
2018-09-18T11:43:23.200Z,25.07
2018-09-18T11:44:23.191Z,24.97
2018-09-18T11:45:23.212Z,25.08
2018-09-18T11:46:23.168Z,25.08
2018-09-18T11:47:23.203Z,25.05
2018-09-18T11:48:23.165Z,25.04
2018-09-18T11:49:23.167Z,25.09
2018-09-18T11:50:23.145Z,25.05
2018-09-18T11:51:23.177Z,25.12
2018-09-18T11:52:23.115Z,25.09
2018-09-18T11:53:23.102Z,25.09
2018-09-18T11:54:23.167Z,25.02
2018-09-18T11:55:23.074Z,25.14
2018-09-18T11:56:23.082Z,25.09
2018-09-18T11:57:23.057Z,25.07
2018-09-18T11:58:23.054Z,25.09
2018-09-18T11:59:23.023Z,25.07
2018-09-18T12:00:23.018Z,25.09
2018-09-18T12:01:23.009Z,25.08
2018-09-18T12:02:22.989Z,25.11
2018-09-18T12:03:22.991Z,25.04
2018-09-18T12:04:22.968Z,25.04
2018-09-18T12:05:22.959Z,25.08
2018-09-18T12:06:22.972Z,25.08
2018-09-18T12:07:22.962Z,25.08
2018-09-18T12:08:22.937Z,25.11
2018-09-18T12:09:22.915Z,25.12
2018-09-18T12:10:22.904Z,25.11
2018-09-18T12:11:22.904Z,25.12
2018-09-18T12:12:22.882Z,25.11
2018-09-18T12:13:22.888Z,25.14
2018-09-18T12:14:22.905Z,25.12
2018-09-18T12:15:22.856Z,25.12
2018-09-18T12:16:22.850Z,25.15
2018-09-18T12:17:22.833Z,25.14
2018-09-18T12:18:22.845Z,25.14
2018-09-18T12:19:22.827Z,25.11
2018-09-18T12:20:22.796Z,25.11
2018-09-18T12:21:22.785Z,25.12
2018-09-18T12:22:22.918Z,25.14
2018-09-18T12:23:22.775Z,25.12
2018-09-18T12:24:22.757Z,25.15
2018-09-18T12:25:22.740Z,25.11
2018-09-18T12:26:22.731Z,25.17
2018-09-18T12:27:22.731Z,25.14
2018-09-18T12:28:22.724Z,25.14
2018-09-18T12:29:22.724Z,25.15
2018-09-18T12:30:22.691Z,25.11
2018-09-18T12:31:22.677Z,25.12
2018-09-18T12:32:22.666Z,25.11
2018-09-18T12:33:22.693Z,25.05
2018-09-18T12:34:22.644Z,25.08
2018-09-18T12:35:22.659Z,25.14
2018-09-18T12:36:22.622Z,25.08
2018-09-18T12:37:22.610Z,25.12
2018-09-18T12:38:22.612Z,25.11
2018-09-18T12:39:22.589Z,25.07
2018-09-18T12:40:22.597Z,25.09
2018-09-18T12:41:22.722Z,25.08
2018-09-18T12:42:22.735Z,25.08
2018-09-18T12:43:22.557Z,25.11
2018-09-18T12:44:22.556Z,25.12
2018-09-18T12:45:22.527Z,25.09
2018-09-18T12:46:22.523Z,25.07
2018-09-18T12:47:22.508Z,25.12
2018-09-18T12:48:22.538Z,25.14
2018-09-18T12:49:29.589Z,25.09
2018-09-18T12:50:22.711Z,25.02
2018-09-18T12:51:22.460Z,25.04
2018-09-18T12:52:22.466Z,25.01